Time;durP1;ratioP1;P1;durP2;ratioP2;P2;SDS_P1;SDS_P2;PMS_P1;PMS_P2;Temp;Humidity;BMP_temperature;BMP_pressure;BME280_temperature;BME280_humidity;BME280_pressure;Samples;Min_cycle;Max_cycle;Signal;HPM_P1;HPM_P2
2021/03/10 00:01:02;;;;;;;10.10;7.70;;;;;;;8.61;43.80;100970.84;4924189;28;127139;-62
2021/03/10 00:03:28;;;;;;;9.27;7.47;;;;;;;8.55;44.31;100972.59;4924255;28;127565;-62
2021/03/10 00:05:54;;;;;;;10.13;8.07;;;;;;;8.53;44.34;100969.34;4922399;28;127487;-59
2021/03/10 00:08:21;;;;;;;10.40;8.15;;;;;;;8.50;44.04;100975.22;4925446;28;98061;-59
2021/03/10 00:10:47;;;;;;;10.73;7.97;;;;;;;8.52;43.99;100973.06;4923505;28;103201;-59
2021/03/10 00:13:13;;;;;;;11.38;8.13;;;;;;;8.50;44.42;100974.41;4922713;28;128902;-59
2021/03/10 00:15:39;;;;;;;10.77;7.95;;;;;;;8.49;44.02;100980.81;4923159;28;98020;-59
2021/03/10 00:18:05;;;;;;;11.93;8.05;;;;;;;8.47;44.30;100969.50;4924484;28;108143;-59
2021/03/10 00:20:31;;;;;;;10.20;8.13;;;;;;;8.47;44.26;100974.88;4922766;28;98560;-62
2021/03/10 00:22:57;;;;;;;11.07;8.63;;;;;;;8.46;44.48;100981.31;4937382;28;128560;-59
2021/03/10 00:25:24;;;;;;;11.07;8.40;;;;;;;8.48;44.37;100979.19;4923674;28;125192;-59
2021/03/10 00:27:50;;;;;;;10.95;8.75;;;;;;;8.45;44.68;100975.13;4925437;28;97738;-62
2021/03/10 00:30:17;;;;;;;10.77;8.63;;;;;;;8.42;44.58;100977.47;4924305;28;118502;-59
2021/03/10 00:32:43;;;;;;;10.75;8.52;;;;;;;8.44;45.02;100978.03;4923432;28;98597;-59
2021/03/10 00:35:09;;;;;;;11.23;8.75;;;;;;;8.41;44.84;100979.34;4924300;28;98544;-62
2021/03/10 00:37:35;;;;;;;11.07;8.57;;;;;;;8.40;44.62;100972.31;4923443;28;111388;-62
2021/03/10 00:40:02;;;;;;;10.55;8.50;;;;;;;8.40;44.51;100976.88;4922541;28;129182;-62
2021/03/10 00:42:28;;;;;;;10.57;8.52;;;;;;;8.37;44.74;100972.81;4923395;28;118969;-62
2021/03/10 00:44:54;;;;;;;11.13;8.80;;;;;;;8.38;44.55;100971.75;4922877;28;127905;-59
2021/03/10 00:47:21;;;;;;;10.20;8.27;;;;;;;8.35;44.77;100972.19;4922855;28;98009;-61
2021/03/10 00:49:47;;;;;;;10.18;8.18;;;;;;;8.33;44.94;100969.78;4922685;28;98016;-62
2021/03/10 00:52:13;;;;;;;10.20;8.32;;;;;;;8.35;44.77;100972.19;4923279;28;126821;-59
2021/03/10 00:54:40;;;;;;;10.45;8.77;;;;;;;8.34;44.86;100970.59;4921882;28;97932;-61
2021/03/10 00:57:07;;;;;;;9.98;8.75;;;;;;;8.35;44.77;100975.69;4922730;28;97707;-59
2021/03/10 00:59:33;;;;;;;10.32;8.27;;;;;;;8.33;45.31;100977.00;4923689;28;99220;-62
2021/03/10 01:01:59;;;;;;;10.48;8.13;;;;;;;8.33;44.71;100977.00;4923125;28;127614;-59
2021/03/10 01:04:25;;;;;;;10.02;8.02;;;;;;;8.33;45.13;100966.25;4923949;28;98256;-59
2021/03/10 01:06:51;;;;;;;10.32;7.68;;;;;;;8.29;44.72;100962.41;4923034;28;97839;-62
2021/03/10 01:09:18;;;;;;;9.98;7.57;;;;;;;8.28;45.07;100956.22;4922671;28;124975;-62
2021/03/10 01:11:44;;;;;;;11.35;7.93;;;;;;;8.30;44.91;100964.06;4924109;28;98344;-62
2021/03/10 01:14:11;;;;;;;9.63;8.25;;;;;;;8.27;45.02;100964.53;4938083;28;101736;-59
2021/03/10 01:16:37;;;;;;;10.27;7.63;;;;;;;8.27;45.02;100959.97;4924216;28;97820;-62
2021/03/10 01:19:03;;;;;;;10.15;7.70;;;;;;;8.25;44.83;100956.72;4922455;28;128565;-62
2021/03/10 01:21:29;;;;;;;9.85;7.72;;;;;;;8.22;45.18;100954.50;4921839;28;98884;-59
2021/03/10 01:23:55;;;;;;;8.68;7.75;;;;;;;8.24;45.07;100951.56;4922402;28;123405;-61
2021/03/10 01:26:21;;;;;;;10.88;7.93;;;;;;;8.24;44.83;100954.25;4922520;28;114536;-59
2021/03/10 01:28:48;;;;;;;10.43;8.13;;;;;;;8.21;44.73;100950.19;4922018;28;127978;-62
2021/03/10 01:31:14;;;;;;;9.60;7.35;;;;;;;8.18;44.97;100941.81;4922390;28;126518;-59
2021/03/10 01:33:40;;;;;;;10.30;7.80;;;;;;;8.17;45.08;100943.66;4922343;28;122705;-62
2021/03/10 01:36:07;;;;;;;8.40;7.30;;;;;;;8.15;45.23;100950.34;4921829;28;97929;-62
2021/03/10 01:38:33;;;;;;;10.55;7.65;;;;;;;8.14;45.31;100954.09;4921269;28;99062;-59
2021/03/10 01:40:59;;;;;;;9.75;7.88;;;;;;;8.17;45.43;100949.03;4922920;28;128887;-59
2021/03/10 01:43:25;;;;;;;9.43;8.07;;;;;;;8.12;45.17;100946.25;4922442;28;97993;-63
2021/03/10 01:45:51;;;;;;;10.43;7.90;;;;;;;8.07;45.50;100946.97;4923004;28;110755;-59
2021/03/10 01:48:20;;;;;;;8.45;7.35;;;;;;;8.04;45.42;100950.13;4921625;28;126029;-59
2021/03/10 01:50:46;;;;;;;10.07;8.00;;;;;;;8.06;45.53;100948.03;4921231;28;100613;-62
2021/03/10 01:53:12;;;;;;;11.63;8.20;;;;;;;8.06;45.55;100941.84;4904532;28;97934;-62
2021/03/10 01:55:38;;;;;;;9.30;7.38;;;;;;;8.04;45.41;100946.63;4889902;28;97841;-59
2021/03/10 01:58:04;;;;;;;9.95;7.70;;;;;;;8.07;45.50;100946.97;4905290;28;98381;-59
2021/03/10 02:00:31;;;;;;;11.90;8.20;;;;;;;8.09;45.09;100946.72;4904184;28;128114;-61
2021/03/10 02:02:57;;;;;;;10.60;8.55;;;;;;;8.13;45.75;100942.50;4923234;28;98142;-61
2021/03/10 02:05:23;;;;;;;9.95;8.02;;;;;;;8.18;45.20;100947.19;4923475;28;98062;-62
2021/03/10 02:08:14;;;;;;;10.23;7.97;;;;;;;8.12;45.10;100943.56;4915673;28;128427;-62
2021/03/10 02:10:49;;;;;;;9.52;7.78;;;;;;;8.16;45.11;100949.28;4931561;28;98175;-61
2021/03/10 02:13:59;;;;;;;9.32;7.65;;;;;;;8.13;45.42;100934.44;4903065;28;98052;-59
2021/03/10 02:16:58;;;;;;;11.30;8.00;;;;;;;8.16;45.20;100943.91;4934455;28;98103;-59
2021/03/10 02:19:54;;;;;;;10.02;7.70;;;;;;;8.09;45.27;100939.47;4879717;28;98914;-60
2021/03/10 02:22:46;;;;;;;11.70;8.07;;;;;;;8.06;45.38;100937.28;4952440;28;120167;-59
2021/03/10 02:25:52;;;;;;;8.77;7.57;;;;;;;8.08;45.48;100948.59;4954082;28;98669;-63
2021/03/10 02:28:18;;;;;;;11.35;7.88;;;;;;;8.02;45.40;100944.19;4940338;28;99030;-62
2021/03/10 02:30:49;;;;;;;11.35;7.85;;;;;;;8.12;45.16;100943.56;4936442;28;127932;-59
2021/03/10 02:33:21;;;;;;;10.73;8.07;;;;;;;8.02;45.39;100946.06;4920168;28;98291;-59
2021/03/10 02:36:11;;;;;;;8.93;8.00;;;;;;;8.04;45.38;100946.63;4921617;28;124090;-59
2021/03/10 02:38:43;;;;;;;10.18;7.93;;;;;;;8.02;45.10;100948.75;4920669;28;97831;-59
2021/03/10 02:41:09;;;;;;;10.20;7.57;;;;;;;8.06;45.45;100949.91;4920190;28;107209;-62
2021/03/10 02:43:35;;;;;;;9.63;7.63;;;;;;;8.03;45.80;100947.69;4923838;28;106549;-61
2021/03/10 02:46:03;;;;;;;10.68;7.85;;;;;;;7.97;45.41;100941.38;4936598;28;98665;-59
2021/03/10 02:48:30;;;;;;;9.32;7.57;;;;;;;7.98;45.55;100950.28;4953651;28;98301;-61
2021/03/10 02:50:56;;;;;;;9.50;7.38;;;;;;;8.00;45.43;100948.97;4920409;28;98420;-62
2021/03/10 02:53:22;;;;;;;9.15;7.60;;;;;;;7.98;45.93;100956.47;4888204;28;98235;-59
2021/03/10 02:55:48;;;;;;;9.70;7.75;;;;;;;8.00;45.78;100956.22;4921632;28;127377;-59
2021/03/10 02:58:14;;;;;;;9.98;7.80;;;;;;;7.96;45.67;100949.69;4919214;28;117054;-59
2021/03/10 03:00:40;;;;;;;9.98;7.65;;;;;;;7.95;45.80;100954.25;4921396;28;119301;-62
2021/03/10 03:03:06;;;;;;;10.93;7.95;;;;;;;7.94;45.70;100951.78;4922544;28;97998;-59
2021/03/10 03:05:33;;;;;;;9.93;7.70;;;;;;;7.96;45.78;100950.50;4921710;28;104885;-59
2021/03/10 03:08:01;;;;;;;9.52;7.82;;;;;;;7.91;45.65;100950.41;4904075;28;98000;-61
2021/03/10 03:10:30;;;;;;;8.95;7.50;;;;;;;7.91;45.81;100950.41;4920973;28;98518;-59
2021/03/10 03:12:56;;;;;;;10.10;7.82;;;;;;;7.96;45.84;100955.06;4921061;28;103192;-59
2021/03/10 03:15:23;;;;;;;10.27;7.47;;;;;;;7.94;45.64;100955.31;4902866;28;127630;-62
2021/03/10 03:17:50;;;;;;;9.38;7.53;;;;;;;7.92;45.99;100954.72;4921757;28;97912;-59
2021/03/10 03:20:18;;;;;;;10.25;8.30;;;;;;;7.85;45.50;100946.78;4924411;28;112991;-62
2021/03/10 03:22:49;;;;;;;10.57;7.70;;;;;;;7.82;45.62;100958.03;4924018;28;100323;-59
2021/03/10 03:25:20;;;;;;;10.00;7.80;;;;;;;7.80;45.74;100967.34;4923752;28;101062;-59
2021/03/10 03:27:52;;;;;;;9.88;7.63;;;;;;;7.83;45.76;100958.84;4925331;28;98030;-62
2021/03/10 03:30:19;;;;;;;10.82;8.23;;;;;;;7.81;45.89;100960.94;4925904;28;98011;-59
2021/03/10 03:32:45;;;;;;;10.27;7.93;;;;;;;7.74;46.06;100969.13;4923503;28;98164;-59
2021/03/10 03:35:11;;;;;;;12.27;8.45;;;;;;;7.75;46.21;100972.63;4905785;28;127989;-59
2021/03/10 03:37:38;;;;;;;12.25;8.40;;;;;;;7.79;45.90;100965.72;4907335;28;98129;-59
2021/03/10 03:40:13;;;;;;;10.50;8.20;;;;;;;7.70;46.19;100962.56;4922762;28;124554;-59
2021/03/10 03:42:39;;;;;;;9.52;8.25;;;;;;;7.69;46.21;100966.31;4923479;28;98739;-59
2021/03/10 03:45:07;;;;;;;11.60;8.63;;;;;;;7.66;46.28;100965.97;4922613;28;98513;-59
2021/03/10 03:47:34;;;;;;;9.95;7.75;;;;;;;7.68;46.18;100963.88;4925103;28;97836;-63
2021/03/10 03:50:00;;;;;;;10.93;8.10;;;;;;;7.64;46.41;100966.22;4924711;28;97848;-59
2021/03/10 03:52:26;;;;;;;9.82;7.90;;;;;;;7.63;46.26;100970.78;4924111;28;127115;-62
2021/03/10 03:54:52;;;;;;;10.88;8.02;;;;;;;7.61;46.38;100961.31;4923731;28;127889;-59
2021/03/10 03:57:18;;;;;;;10.57;8.07;;;;;;;7.57;46.72;100962.84;4924391;28;98105;-61
2021/03/10 03:59:44;;;;;;;11.13;8.15;;;;;;;7.56;46.76;100961.22;4923580;28;127873;-59
2021/03/10 04:02:10;;;;;;;10.10;7.90;;;;;;;7.54;46.17;100963.31;4923961;28;125720;-62
2021/03/10 04:04:36;;;;;;;10.10;8.25;;;;;;;7.58;46.12;100968.00;4923414;28;121827;-59
2021/03/10 04:07:02;;;;;;;11.00;8.05;;;;;;;7.55;46.86;100968.44;4924347;28;97851;-62
2021/03/10 04:09:28;;;;;;;10.48;7.90;;;;;;;7.53;46.39;100970.53;4924903;28;100016;-59
2021/03/10 04:11:54;;;;;;;10.40;7.90;;;;;;;7.50;46.87;100968.31;4924033;28;127156;-62
2021/03/10 04:14:21;;;;;;;10.70;8.18;;;;;;;7.49;46.45;100982.78;4906776;28;98204;-62
2021/03/10 04:16:47;;;;;;;10.82;8.48;;;;;;;7.52;46.72;100982.31;4923076;28;97856;-59
2021/03/10 04:19:13;;;;;;;10.52;8.15;;;;;;;7.52;46.51;100981.50;4924039;28;98667;-62
2021/03/10 04:21:39;;;;;;;10.57;8.45;;;;;;;7.48;46.57;100985.72;4924596;28;98466;-59
2021/03/10 04:24:08;;;;;;;10.10;7.72;;;;;;;7.48;46.91;100981.16;4923716;28;106309;-62
2021/03/10 04:26:34;;;;;;;11.48;8.75;;;;;;;7.48;46.58;100986.53;4924276;28;97777;-59
2021/03/10 04:29:00;;;;;;;9.77;7.88;;;;;;;7.47;47.01;100982.22;4906064;28;98353;-59
2021/03/10 04:31:26;;;;;;;9.48;7.78;;;;;;;7.49;47.05;100981.97;4924026;28;124988;-62
2021/03/10 04:33:52;;;;;;;11.02;8.10;;;;;;;7.43;46.63;100982.91;4923946;28;97969;-62
2021/03/10 04:36:18;;;;;;;12.20;8.60;;;;;;;7.46;46.72;100985.94;4924300;28;108217;-62
2021/03/10 04:38:45;;;;;;;11.93;7.97;;;;;;;7.45;46.81;100991.53;4923482;28;119974;-59
2021/03/10 04:41:11;;;;;;;12.60;8.45;;;;;;;7.45;46.64;100989.66;4924250;28;98510;-59
2021/03/10 04:43:37;;;;;;;10.73;8.65;;;;;;;7.41;46.94;100991.19;4923810;28;98493;-62
2021/03/10 04:46:03;;;;;;;11.25;8.48;;;;;;;7.37;47.25;100988.16;4924536;28;97739;-62
2021/03/10 04:48:29;;;;;;;10.60;7.95;;;;;;;7.35;46.92;100989.47;4922967;28;127668;-59
2021/03/10 04:50:55;;;;;;;11.27;8.30;;;;;;;7.31;47.38;101001.66;4923689;28;127299;-62
2021/03/10 04:53:21;;;;;;;10.15;8.05;;;;;;;7.29;47.22;101001.91;4922676;28;125757;-62
2021/03/10 04:55:47;;;;;;;10.93;8.57;;;;;;;7.29;47.67;101004.59;4924136;28;109478;-62
2021/03/10 04:58:13;;;;;;;10.43;8.43;;;;;;;7.26;47.51;100998.88;4922290;28;129467;-59
2021/03/10 05:00:39;;;;;;;11.05;8.25;;;;;;;7.25;47.64;101002.63;4924243;28;98882;-62
2021/03/10 05:03:05;;;;;;;11.27;8.30;;;;;;;7.26;47.54;101013.09;4923527;28;115396;-59
2021/03/10 05:05:31;;;;;;;12.13;8.82;;;;;;;7.21;47.73;101004.13;4923615;28;97937;-59
2021/03/10 05:07:58;;;;;;;10.00;8.02;;;;;;;7.25;47.54;101010.66;4922300;28;128080;-59
2021/03/10 05:10:24;;;;;;;10.82;8.38;;;;;;;7.19;47.66;101014.25;4924076;28;98597;-62
2021/03/10 05:12:50;;;;;;;11.23;8.27;;;;;;;7.19;47.63;101015.09;4923667;28;97818;-59
2021/03/10 05:15:16;;;;;;;11.13;8.32;;;;;;;7.17;47.35;101011.00;4923290;28;117320;-62
2021/03/10 05:17:43;;;;;;;11.50;8.88;;;;;;;7.15;47.32;101005.84;4904973;28;112185;-62
2021/03/10 05:20:11;;;;;;;11.63;8.65;;;;;;;7.11;47.74;101005.53;4953557;28;125178;-59
2021/03/10 05:22:37;;;;;;;12.10;8.82;;;;;;;7.16;47.16;101017.44;4923131;28;98208;-59
2021/03/10 05:25:08;;;;;;;10.65;8.48;;;;;;;7.13;47.65;101013.34;4923557;28;99323;-59
2021/03/10 05:27:34;;;;;;;11.75;8.68;;;;;;;7.11;47.39;101013.56;4923752;28;97818;-61
2021/03/10 05:30:02;;;;;;;10.90;8.75;;;;;;;7.10;47.42;101019.97;4921802;28;98054;-59
2021/03/10 05:32:28;;;;;;;11.02;9.02;;;;;;;7.17;47.90;101021.72;4921000;28;102120;-59
2021/03/10 05:34:54;;;;;;;10.50;8.30;;;;;;;7.10;47.56;101021.81;4920552;28;98321;-59
2021/03/10 05:37:20;;;;;;;11.20;9.13;;;;;;;7.12;47.67;101020.56;4913300;28;98418;-59
2021/03/10 05:39:46;;;;;;;10.98;8.45;;;;;;;7.13;48.05;101030.22;4920358;28;112405;-61
2021/03/10 05:42:12;;;;;;;10.25;8.23;;;;;;;7.17;47.56;101024.41;4919304;28;128255;-62
2021/03/10 05:44:38;;;;;;;11.70;8.90;;;;;;;7.17;47.21;101027.09;4919930;28;116392;-62
2021/03/10 05:47:06;;;;;;;11.45;8.90;;;;;;;7.17;47.24;101029.78;4921378;28;101002;-62
2021/03/10 05:49:33;;;;;;;10.43;8.38;;;;;;;7.20;47.52;101035.50;4920461;28;101812;-62
2021/03/10 05:52:00;;;;;;;11.23;9.07;;;;;;;7.20;47.40;101035.50;4917695;28;99810;-59
2021/03/10 05:54:28;;;;;;;12.38;9.52;;;;;;;7.27;47.35;101033.53;4920866;28;98285;-62
2021/03/10 05:56:54;;;;;;;13.05;9.75;;;;;;;7.27;47.18;101036.22;4917716;28;117056;-61
2021/03/10 05:59:20;;;;;;;12.90;9.57;;;;;;;7.35;47.04;101043.09;4899704;28;128984;-59
2021/03/10 06:01:46;;;;;;;11.40;9.35;;;;;;;7.38;47.46;101042.63;4919577;28;127030;-59
2021/03/10 06:04:12;;;;;;;12.75;9.70;;;;;;;7.43;47.11;101040.06;4920291;28;109370;-62
2021/03/10 06:06:41;;;;;;;13.00;10.10;;;;;;;7.52;47.20;101046.72;4918765;28;127193;-62
2021/03/10 06:09:21;;;;;;;12.93;10.32;;;;;;;7.57;47.63;101048.69;4919730;28;98518;-59
2021/03/10 06:12:01;;;;;;;14.77;11.27;;;;;;;7.64;47.45;101052.09;4917607;28;98111;-59
2021/03/10 06:14:28;;;;;;;15.85;12.07;;;;;;;7.81;47.03;101049.50;4921275;28;98061;-59
2021/03/10 06:17:20;;;;;;;13.60;11.50;;;;;;;7.83;47.91;101053.59;4922967;28;98147;-62
2021/03/10 06:19:47;;;;;;;14.18;11.20;;;;;;;7.87;47.50;101049.38;4915969;28;128284;-59
2021/03/10 06:22:14;;;;;;;14.55;11.18;;;;;;;7.90;47.21;101056.16;4921531;28;98070;-62
2021/03/10 06:24:40;;;;;;;14.65;11.50;;;;;;;7.86;47.28;101053.13;4920795;28;97795;-59
2021/03/10 06:27:07;;;;;;;15.32;12.05;;;;;;;7.91;47.46;101055.09;4921079;28;123699;-61
2021/03/10 06:29:33;;;;;;;15.32;11.60;;;;;;;7.88;47.69;101055.56;4920029;28;106196;-59
2021/03/10 06:32:09;;;;;;;14.43;11.55;;;;;;;7.87;48.06;101060.13;4921130;28;124896;-62
2021/03/10 06:34:45;;;;;;;16.30;12.10;;;;;;;7.93;47.70;101053.00;4923057;28;97704;-59
2021/03/10 06:37:12;;;;;;;16.75;11.88;;;;;;;8.02;47.80;101056.97;4922527;28;98210;-62
2021/03/10 06:39:38;;;;;;;15.05;11.73;;;;;;;8.08;47.34;101050.63;4952335;28;99073;-59
2021/03/10 06:42:18;;;;;;;15.32;11.52;;;;;;;8.09;47.67;101054.13;4921696;28;97997;-61
2021/03/10 06:44:51;;;;;;;15.77;12.43;;;;;;;8.08;48.24;101058.69;4923099;28;98838;-62
2021/03/10 06:47:18;;;;;;;15.00;12.13;;;;;;;8.23;47.64;101054.69;4921356;28;98618;-59
2021/03/10 06:49:54;;;;;;;15.57;12.57;;;;;;;8.28;48.10;101058.28;4921965;28;98968;-59
2021/03/10 06:52:20;;;;;;;15.93;12.63;;;;;;;8.36;47.61;101057.09;4921400;28;127040;-62
2021/03/10 06:55:00;;;;;;;15.70;12.57;;;;;;;8.44;48.04;101055.94;4924050;28;103786;-61
2021/03/10 06:57:27;;;;;;;15.57;12.32;;;;;;;8.50;47.88;101058.50;4925280;28;98450;-62
2021/03/10 06:59:56;;;;;;;17.05;12.38;;;;;;;8.52;47.92;101059.06;4923374;28;98166;-59
2021/03/10 07:02:27;;;;;;;14.82;12.30;;;;;;;8.63;47.72;101065.47;4924743;28;97691;-62
2021/03/10 07:04:58;;;;;;;16.23;12.13;;;;;;;8.77;47.46;101072.19;4925575;28;97939;-62
2021/03/10 07:07:26;;;;;;;16.67;12.32;;;;;;;8.81;47.79;101067.97;4925240;28;97741;-62
2021/03/10 07:09:52;;;;;;;15.02;11.52;;;;;;;8.90;47.54;101060.31;4925250;28;99039;-61
2021/03/10 07:12:19;;;;;;;15.48;11.90;;;;;;;8.93;48.04;101067.91;4924404;28;98438;-62
2021/03/10 07:14:49;;;;;;;17.27;12.40;;;;;;;8.97;48.20;101065.56;4924036;28;97833;-59
2021/03/10 07:17:17;;;;;;;15.98;11.68;;;;;;;9.13;48.03;101080.09;4924944;28;98683;-62
2021/03/10 07:19:43;;;;;;;14.80;11.95;;;;;;;9.22;47.99;101082.13;4924543;28;102154;-59
2021/03/10 07:22:24;;;;;;;14.68;11.60;;;;;;;9.32;48.09;101071.53;4924755;28;97953;-59
2021/03/10 07:25:11;;;;;;;14.60;11.75;;;;;;;9.37;48.30;101078.06;4924653;28;98497;-59
2021/03/10 07:28:24;;;;;;;13.90;11.18;;;;;;;9.46;48.24;101076.59;4922945;28;99096;-62
2021/03/10 07:30:51;;;;;;;14.00;11.57;;;;;;;9.67;47.97;101070.47;4863553;28;99328;-62
2021/03/10 07:33:21;;;;;;;14.32;11.60;;;;;;;9.79;48.10;101063.09;4862183;28;98153;-59
2021/03/10 07:35:51;;;;;;;14.23;12.10;;;;;;;9.94;48.13;101075.13;4893174;28;97949;-59
2021/03/10 07:38:18;;;;;;;14.90;11.15;;;;;;;10.03;47.99;101061.00;4922090;28;99745;-59
2021/03/10 07:40:59;;;;;;;14.50;11.93;;;;;;;10.24;47.89;101058.56;4924502;28;98901;-62
2021/03/10 07:43:44;;;;;;;14.80;11.43;;;;;;;10.46;47.54;101062.13;4924230;28;98618;-62
2021/03/10 07:46:29;;;;;;;15.93;11.70;;;;;;;10.77;47.34;101068.66;4925212;28;97910;-59
2021/03/10 07:48:56;;;;;;;14.10;11.10;;;;;;;10.91;46.42;101071.75;4923553;28;97866;-62
2021/03/10 07:51:35;;;;;;;12.88;11.32;;;;;;;11.23;46.30;101079.06;4924048;28;98797;-59
2021/03/10 07:54:14;;;;;;;12.93;11.35;;;;;;;11.48;45.54;101081.97;4923788;28;98297;-59
2021/03/10 07:56:40;;;;;;;13.68;11.40;;;;;;;11.76;45.37;101078.13;4924670;28;106914;-62
2021/03/10 07:59:20;;;;;;;14.15;11.52;;;;;;;12.02;45.69;101076.44;4921982;28;127339;-63
2021/03/10 08:01:47;;;;;;;14.07;12.02;;;;;;;12.27;45.23;101074.94;4922386;28;98604;-59
2021/03/10 08:04:17;;;;;;;13.27;11.50;;;;;;;12.62;44.92;101073.44;4922578;28;98050;-59
2021/03/10 08:06:52;;;;;;;12.40;11.02;;;;;;;13.01;44.32;101073.78;4923517;28;108358;-59
2021/03/10 08:09:20;;;;;;;15.27;11.27;;;;;;;13.67;43.13;101062.16;4922778;28;99469;-60
2021/03/10 08:12:22;;;;;;;13.00;11.60;;;;;;;14.59;41.10;101061.88;4923792;28;98083;-62
2021/03/10 08:14:49;;;;;;;12.90;11.60;;;;;;;15.52;39.26;101058.19;4881612;28;98434;-60
2021/03/10 08:17:25;;;;;;;13.77;11.70;;;;;;;16.36;37.96;101055.94;4915200;28;98006;-63
2021/03/10 08:20:10;;;;;;;12.27;10.98;;;;;;;17.29;36.55;101048.09;4924211;28;98528;-62
2021/03/10 08:22:36;;;;;;;12.60;11.13;;;;;;;17.65;36.56;101056.44;4922971;28;104576;-60
2021/03/10 08:25:03;;;;;;;14.68;11.73;;;;;;;18.17;35.93;101056.28;4923285;28;125394;-62
2021/03/10 08:27:37;;;;;;;11.55;10.45;;;;;;;18.82;35.11;101053.28;4923994;28;98056;-60
2021/03/10 08:30:06;;;;;;;13.07;10.50;;;;;;;19.65;33.87;101057.53;4923464;28;98814;-63
2021/03/10 08:32:32;;;;;;;11.60;10.40;;;;;;;20.59;32.66;101057.09;4922948;28;98883;-60
2021/03/10 08:35:07;;;;;;;11.63;10.48;;;;;;;21.23;32.27;101061.09;4923864;28;97831;-61
2021/03/10 08:37:33;;;;;;;11.48;10.32;;;;;;;21.87;31.12;101063.84;4923492;28;98683;-61
2021/03/10 08:39:59;;;;;;;12.05;10.95;;;;;;;22.50;30.28;101048.34;4922893;28;97889;-61
2021/03/10 08:42:25;;;;;;;11.77;10.57;;;;;;;23.17;29.66;101060.28;4920623;28;128445;-63
2021/03/10 08:44:53;;;;;;;10.73;9.73;;;;;;;23.56;29.07;101052.59;4923396;28;108968;-63
2021/03/10 08:47:22;;;;;;;10.93;9.93;;;;;;;24.21;28.52;101058.31;4905331;28;97971;-61
2021/03/10 08:49:58;;;;;;;10.40;9.30;;;;;;;25.09;27.51;101058.56;4923677;28;98236;-61
2021/03/10 08:52:26;;;;;;;10.15;9.20;;;;;;;25.29;27.24;101060.31;4922402;28;98673;-61
2021/03/10 08:55:00;;;;;;;10.40;9.40;;;;;;;25.89;26.72;101058.34;4922928;28;97950;-61
2021/03/10 08:57:31;;;;;;;9.88;8.90;;;;;;;26.55;26.20;101062.28;4920894;28;98465;-64
2021/03/10 08:59:57;;;;;;;9.98;8.98;;;;;;;27.27;25.63;101067.31;4924095;28;98480;-61
2021/03/10 09:02:31;;;;;;;10.13;9.13;;;;;;;27.73;25.22;101061.81;4923107;28;98524;-61
2021/03/10 09:05:02;;;;;;;9.15;8.35;;;;;;;27.88;25.12;101062.91;4922777;28;98063;-62
2021/03/10 09:07:28;;;;;;;8.63;7.83;;;;;;;28.11;25.22;101055.34;4921613;28;97900;-64
2021/03/10 09:09:57;;;;;;;8.48;7.68;;;;;;;28.07;25.33;101059.25;4904132;28;125664;-64
2021/03/10 09:12:23;;;;;;;8.27;7.47;;;;;;;28.31;25.19;101047.72;4920119;28;119746;-62
2021/03/10 09:14:49;;;;;;;8.75;7.95;;;;;;;28.59;25.43;101055.66;4921231;28;98193;-61
2021/03/10 09:17:15;;;;;;;8.75;7.95;;;;;;;29.11;25.00;101056.69;4920243;28;97937;-59
2021/03/10 09:19:46;;;;;;;8.38;7.63;;;;;;;29.58;24.81;101054.44;4919206;28;98335;-62
2021/03/10 09:22:13;;;;;;;8.52;7.63;;;;;;;29.95;23.76;101050.78;4919492;28;98526;-62
2021/03/10 09:24:57;;;;;;;8.10;7.30;;;;;;;30.16;23.79;101042.59;4922363;28;98458;-59
2021/03/10 09:27:30;;;;;;;7.57;6.88;;;;;;;30.48;23.82;101042.00;4923164;28;97724;-62
2021/03/10 09:30:23;;;;;;;8.48;7.63;;;;;;;30.93;23.08;101045.38;4923234;28;97859;-62
2021/03/10 09:32:49;;;;;;;7.80;7.10;;;;;;;31.18;23.01;101037.09;4916699;28;98448;-59
2021/03/10 09:35:36;;;;;;;7.43;6.75;;;;;;;31.15;23.46;101030.34;4921390;28;123192;-62
2021/03/10 09:38:12;;;;;;;7.90;7.20;;;;;;;31.28;23.65;101030.75;4921302;28;98210;-59
2021/03/10 09:40:46;;;;;;;7.20;6.60;;;;;;;31.41;23.33;101028.44;4923284;28;97778;-63
2021/03/10 09:43:22;;;;;;;7.28;6.57;;;;;;;32.11;22.72;101029.63;4921544;28;100345;-60
2021/03/10 09:45:48;;;;;;;7.35;6.72;;;;;;;32.67;22.12;101036.22;4923836;28;97973;-63
2021/03/10 09:48:33;;;;;;;6.65;6.15;;;;;;;33.20;21.93;101040.75;4904825;28;98111;-61
2021/03/10 09:51:14;;;;;;;6.90;6.22;;;;;;;33.60;21.29;101041.31;4922627;28;99290;-60
2021/03/10 09:53:45;;;;;;;6.68;6.07;;;;;;;33.71;21.47;101032.81;4922370;28;98687;-60
2021/03/10 09:56:13;;;;;;;6.75;6.15;;;;;;;33.77;21.50;101038.78;4921704;28;98185;-60
2021/03/10 09:58:59;;;;;;;6.47;5.82;;;;;;;33.63;21.37;101042.47;4923121;28;97831;-63
2021/03/10 10:01:26;;;;;;;6.03;5.43;;;;;;;32.62;22.80;101047.81;4921518;28;98761;-60
2021/03/10 10:03:53;;;;;;;6.32;5.70;;;;;;;31.98;23.78;101034.00;4922417;28;99080;-63
2021/03/10 10:06:20;;;;;;;6.22;5.63;;;;;;;31.56;24.53;101032.00;4919990;28;98385;-63
2021/03/10 10:08:46;;;;;;;6.13;5.55;;;;;;;31.25;24.83;101023.22;4921525;28;98008;-60
2021/03/10 10:11:13;;;;;;;6.28;5.68;;;;;;;31.07;25.18;101025.16;4922704;28;101235;-60
2021/03/10 10:13:47;;;;;;;6.38;5.78;;;;;;;31.06;25.46;101018.78;4921776;28;99189;-60
2021/03/10 10:16:13;;;;;;;5.82;5.22;;;;;;;30.94;25.17;101017.19;4921804;28;99029;-64
2021/03/10 10:18:39;;;;;;;5.68;5.10;;;;;;;31.02;25.42;101020.78;4922855;28;97978;-63
2021/03/10 10:21:05;;;;;;;5.32;4.85;;;;;;;31.03;25.88;101025.16;4922675;28;99151;-63
2021/03/10 10:23:31;;;;;;;5.68;5.18;;;;;;;30.41;26.64;101019.72;4952776;28;99763;-63
2021/03/10 10:25:58;;;;;;;6.60;5.97;;;;;;;28.84;27.83;101032.97;4936850;28;98592;-59
2021/03/10 10:28:24;;;;;;;7.30;6.38;;;;;;;27.23;29.10;101032.44;4920077;28;112003;-59
2021/03/10 10:30:51;;;;;;;8.60;7.80;;;;;;;25.85;29.66;101024.34;4922234;28;125364;-62
2021/03/10 10:33:17;;;;;;;8.48;7.55;;;;;;;24.68;30.75;101038.47;4921224;28;98525;-62
2021/03/10 10:35:43;;;;;;;8.48;7.68;;;;;;;23.71;31.88;101040.16;4920548;28;126408;-62
2021/03/10 10:38:09;;;;;;;7.85;7.15;;;;;;;22.86;32.86;101043.41;4918747;28;113466;-59
2021/03/10 10:40:35;;;;;;;8.38;7.57;;;;;;;22.27;33.21;101041.56;4921821;28;98398;-61
2021/03/10 10:43:02;;;;;;;9.00;7.97;;;;;;;21.51;35.03;101031.41;4902675;28;99102;-61
2021/03/10 10:45:28;;;;;;;9.30;8.30;;;;;;;21.02;35.36;101028.06;4921238;28;98383;-61
2021/03/10 10:47:54;;;;;;;9.98;8.55;;;;;;;20.66;36.05;101023.72;4919353;28;113740;-61
2021/03/10 10:50:20;;;;;;;8.80;7.95;;;;;;;20.16;36.18;101029.59;4920725;28;115767;-61
2021/03/10 10:52:48;;;;;;;10.27;8.57;;;;;;;19.92;36.72;101040.94;4928143;28;126191;-58
2021/03/10 10:55:18;;;;;;;8.85;7.95;;;;;;;19.69;37.05;101033.91;4922234;28;97751;-58
2021/03/10 10:57:45;;;;;;;9.40;8.30;;;;;;;19.53;37.10;101038.94;4921782;28;97809;-58
2021/03/10 11:00:16;;;;;;;8.55;7.63;;;;;;;19.35;37.13;101035.34;4920269;28;97877;-58
2021/03/10 11:02:44;;;;;;;9.25;7.85;;;;;;;19.94;36.59;101035.97;4921883;28;99040;-61
2021/03/10 11:05:10;;;;;;;7.95;7.15;;;;;;;20.80;36.09;101026.31;4921324;28;98545;-59
2021/03/10 11:07:36;;;;;;;7.88;7.07;;;;;;;21.70;34.74;101018.09;4920898;28;110285;-59
2021/03/10 11:10:04;;;;;;;8.05;6.72;;;;;;;22.08;34.09;101009.00;4920023;28;127037;-61
2021/03/10 11:12:30;;;;;;;8.55;7.70;;;;;;;21.60;34.54;101012.16;4919250;28;98649;-59
2021/03/10 11:14:56;;;;;;;8.68;7.80;;;;;;;21.05;35.57;101021.94;4921624;28;97765;-62
2021/03/10 11:17:22;;;;;;;9.43;8.52;;;;;;;;;;4921274;28;117571;-62
2021/03/10 11:19:48;;;;;;;8.95;7.70;;;;;;;20.15;36.70;101027.97;4920835;28;121303;-61
2021/03/10 11:22:14;;;;;;;8.65;7.85;;;;;;;19.75;36.93;101032.66;4920259;28;127934;-61
2021/03/10 11:24:40;;;;;;;8.85;7.78;;;;;;;19.34;36.99;101033.72;4921494;28;97770;-59
2021/03/10 11:27:06;;;;;;;7.90;7.15;;;;;;;18.99;37.38;101030.75;4921269;28;117423;-59
2021/03/10 11:29:32;;;;;;;8.15;7.43;;;;;;;18.77;37.77;101039.72;4921004;28;98788;-58
2021/03/10 11:32:00;;;;;;;8.65;7.57;;;;;;;18.60;37.80;101029.44;4921411;28;98152;-61